MPDA/DAV METAR and TAF weather

Enter ICAO airport designator
Station Type Date Time Source
MPDA METAR 2020/09/22 17:00 UTC NOAA

MPDA 221700Z 21008KT 9999 SCT015 29/25 Q1011


Station Type Date Time Source
MPDA Decoded METAR 2020/09/22 17:00 UTC NOAA

David, Panama (MPDA) 08-24N 082-25W 26M
Sep 22, 2020 - 01:00 PM EDT / 2020.09.22 1700 UTC
Wind: from the SSW (210 degrees) at 9 MPH (8 KT):0
Visibility: greater than 7 mile(s):0
Sky conditions: partly cloudy
Temperature: 84 F (29 C)
Dew Point: 77 F (25 C)
Relative Humidity: 79%
Pressure (altimeter): 29.85 in. Hg (1011 hPa)
ob: MPDA 221700Z 21008KT 9999 SCT015 29/25 Q1011
cycle: 17

Station Type Date Time Source
MPDA TAF 2020/09/22 18:21 UTC NOAA

TAF COR TAF MPDA 221715Z 2218/2306 21008KT 9999 SCT018 SCT090 PROB30 2220/2224 7000 TSRA SCT015CB BKN090

Example: see airport list